sensor_id;sensor_type;location;lat;lon;timestamp;P1;durP1;ratioP1;P2;durP2;ratioP2
22826;SDS011;11580;52.562;13.418;2024-01-15T00:01:16;8.53;;;7.63;;
22826;SDS011;11580;52.562;13.418;2024-01-15T00:03:43;8.73;;;7.83;;
22826;SDS011;11580;52.562;13.418;2024-01-15T00:06:10;9.20;;;8.23;;
22826;SDS011;11580;52.562;13.418;2024-01-15T00:08:38;10.20;;;8.53;;
22826;SDS011;11580;52.562;13.418;2024-01-15T00:11:05;8.10;;;7.30;;
22826;SDS011;11580;52.562;13.418;2024-01-15T00:13:32;10.10;;;9.07;;
22826;SDS011;11580;52.562;13.418;2024-01-15T00:15:59;8.17;;;7.37;;
22826;SDS011;11580;52.562;13.418;2024-01-15T00:18:28;9.93;;;8.90;;
22826;SDS011;11580;52.562;13.418;2024-01-15T00:20:55;8.43;;;7.63;;
22826;SDS011;11580;52.562;13.418;2024-01-15T00:23:22;9.90;;;7.63;;
22826;SDS011;11580;52.562;13.418;2024-01-15T00:25:50;10.53;;;8.80;;
22826;SDS011;11580;52.562;13.418;2024-01-15T00:28:18;8.27;;;7.17;;
22826;SDS011;11580;52.562;13.418;2024-01-15T00:30:45;9.63;;;8.37;;
22826;SDS011;11580;52.562;13.418;2024-01-15T00:33:12;8.53;;;7.63;;
22826;SDS011;11580;52.562;13.418;2024-01-15T00:35:41;9.17;;;7.90;;
22826;SDS011;11580;52.562;13.418;2024-01-15T00:38:08;8.67;;;7.80;;
22826;SDS011;11580;52.562;13.418;2024-01-15T00:40:35;8.50;;;7.73;;
22826;SDS011;11580;52.562;13.418;2024-01-15T00:43:02;8.23;;;7.50;;
22826;SDS011;11580;52.562;13.418;2024-01-15T00:45:32;8.67;;;7.67;;
22826;SDS011;11580;52.562;13.418;2024-01-15T00:47:59;7.80;;;7.00;;
22826;SDS011;11580;52.562;13.418;2024-01-15T00:50:27;9.00;;;8.10;;
22826;SDS011;11580;52.562;13.418;2024-01-15T00:52:55;7.37;;;6.67;;
22826;SDS011;11580;52.562;13.418;2024-01-15T00:55:22;8.70;;;7.57;;
22826;SDS011;11580;52.562;13.418;2024-01-15T00:57:50;8.60;;;7.70;;
22826;SDS011;11580;52.562;13.418;2024-01-15T01:00:17;8.33;;;7.30;;
22826;SDS011;11580;52.562;13.418;2024-01-15T01:02:44;7.90;;;7.20;;
22826;SDS011;11580;52.562;13.418;2024-01-15T01:05:11;8.70;;;7.90;;
22826;SDS011;11580;52.562;13.418;2024-01-15T01:07:39;8.90;;;7.80;;
22826;SDS011;11580;52.562;13.418;2024-01-15T01:10:08;8.50;;;7.60;;
22826;SDS011;11580;52.562;13.418;2024-01-15T01:12:35;9.40;;;7.97;;
22826;SDS011;11580;52.562;13.418;2024-01-15T01:15:03;8.47;;;7.57;;
22826;SDS011;11580;52.562;13.418;2024-01-15T01:17:31;9.53;;;7.73;;
22826;SDS011;11580;52.562;13.418;2024-01-15T01:19:59;8.80;;;7.90;;
22826;SDS011;11580;52.562;13.418;2024-01-15T01:22:29;9.57;;;8.40;;
22826;SDS011;11580;52.562;13.418;2024-01-15T01:24:56;8.40;;;7.47;;
22826;SDS011;11580;52.562;13.418;2024-01-15T01:27:25;9.47;;;7.87;;
22826;SDS011;11580;52.562;13.418;2024-01-15T01:29:52;9.83;;;8.60;;
22826;SDS011;11580;52.562;13.418;2024-01-15T01:32:19;8.30;;;7.50;;
22826;SDS011;11580;52.562;13.418;2024-01-15T01:34:46;8.87;;;7.50;;
22826;SDS011;11580;52.562;13.418;2024-01-15T01:37:13;9.10;;;8.10;;
22826;SDS011;11580;52.562;13.418;2024-01-15T01:39:41;7.83;;;7.00;;
22826;SDS011;11580;52.562;13.418;2024-01-15T01:42:09;7.97;;;7.00;;
22826;SDS011;11580;52.562;13.418;2024-01-15T01:44:39;8.70;;;7.80;;
22826;SDS011;11580;52.562;13.418;2024-01-15T01:47:06;10.07;;;8.07;;
22826;SDS011;11580;52.562;13.418;2024-01-15T01:49:34;8.50;;;7.20;;
22826;SDS011;11580;52.562;13.418;2024-01-15T01:52:02;7.17;;;6.47;;
22826;SDS011;11580;52.562;13.418;2024-01-15T01:54:33;7.90;;;7.00;;
22826;SDS011;11580;52.562;13.418;2024-01-15T01:57:03;7.50;;;6.77;;
22826;SDS011;11580;52.562;13.418;2024-01-15T01:59:32;7.90;;;6.90;;
22826;SDS011;11580;52.562;13.418;2024-01-15T02:02:03;7.50;;;6.80;;
22826;SDS011;11580;52.562;13.418;2024-01-15T02:04:31;6.53;;;5.80;;
22826;SDS011;11580;52.562;13.418;2024-01-15T02:07:00;8.77;;;7.20;;
22826;SDS011;11580;52.562;13.418;2024-01-15T02:09:27;7.57;;;6.77;;
22826;SDS011;11580;52.562;13.418;2024-01-15T02:11:55;6.83;;;6.20;;
22826;SDS011;11580;52.562;13.418;2024-01-15T02:14:22;7.40;;;6.70;;
22826;SDS011;11580;52.562;13.418;2024-01-15T02:16:49;8.07;;;7.27;;
22826;SDS011;11580;52.562;13.418;2024-01-15T02:19:18;9.97;;;7.33;;
22826;SDS011;11580;52.562;13.418;2024-01-15T02:21:45;8.13;;;7.20;;
22826;SDS011;11580;52.562;13.418;2024-01-15T02:24:14;7.90;;;7.10;;
22826;SDS011;11580;52.562;13.418;2024-01-15T02:26:41;7.50;;;6.60;;
22826;SDS011;11580;52.562;13.418;2024-01-15T02:29:09;9.23;;;6.23;;
22826;SDS011;11580;52.562;13.418;2024-01-15T02:31:38;8.50;;;6.63;;
22826;SDS011;11580;52.562;13.418;2024-01-15T02:34:05;6.53;;;5.93;;
22826;SDS011;11580;52.562;13.418;2024-01-15T02:36:32;7.10;;;6.23;;
22826;SDS011;11580;52.562;13.418;2024-01-15T02:39:00;7.83;;;6.67;;
22826;SDS011;11580;52.562;13.418;2024-01-15T02:41:28;6.43;;;5.80;;
22826;SDS011;11580;52.562;13.418;2024-01-15T02:43:55;6.43;;;5.03;;
22826;SDS011;11580;52.562;13.418;2024-01-15T02:46:23;6.83;;;5.73;;
22826;SDS011;11580;52.562;13.418;2024-01-15T02:48:50;6.90;;;5.87;;
22826;SDS011;11580;52.562;13.418;2024-01-15T02:51:17;9.17;;;6.30;;
22826;SDS011;11580;52.562;13.418;2024-01-15T02:53:44;7.37;;;6.20;;
22826;SDS011;11580;52.562;13.418;2024-01-15T02:56:11;6.30;;;5.70;;
22826;SDS011;11580;52.562;13.418;2024-01-15T02:58:40;6.60;;;5.47;;
22826;SDS011;11580;52.562;13.418;2024-01-15T03:01:07;6.73;;;5.70;;
22826;SDS011;11580;52.562;13.418;2024-01-15T03:03:34;6.03;;;5.20;;
22826;SDS011;11580;52.562;13.418;2024-01-15T03:06:01;6.73;;;5.43;;
22826;SDS011;11580;52.562;13.418;2024-01-15T03:08:29;5.93;;;5.10;;
22826;SDS011;11580;52.562;13.418;2024-01-15T03:10:56;5.97;;;5.37;;
22826;SDS011;11580;52.562;13.418;2024-01-15T03:13:24;7.10;;;5.00;;
22826;SDS011;11580;52.562;13.418;2024-01-15T03:15:52;5.80;;;5.27;;
22826;SDS011;11580;52.562;13.418;2024-01-15T03:18:19;6.53;;;5.57;;
22826;SDS011;11580;52.562;13.418;2024-01-15T03:20:46;5.73;;;5.13;;
22826;SDS011;11580;52.562;13.418;2024-01-15T03:23:14;4.63;;;4.23;;
22826;SDS011;11580;52.562;13.418;2024-01-15T03:25:41;5.67;;;5.03;;
22826;SDS011;11580;52.562;13.418;2024-01-15T03:28:08;7.03;;;5.27;;
22826;SDS011;11580;52.562;13.418;2024-01-15T03:30:35;9.80;;;6.10;;
22826;SDS011;11580;52.562;13.418;2024-01-15T03:33:04;8.63;;;5.10;;
22826;SDS011;11580;52.562;13.418;2024-01-15T03:35:31;8.63;;;6.70;;
22826;SDS011;11580;52.562;13.418;2024-01-15T03:37:58;5.80;;;5.10;;
22826;SDS011;11580;52.562;13.418;2024-01-15T03:40:25;6.53;;;5.43;;
22826;SDS011;11580;52.562;13.418;2024-01-15T03:42:53;6.53;;;5.77;;
22826;SDS011;11580;52.562;13.418;2024-01-15T03:45:20;6.47;;;5.10;;
22826;SDS011;11580;52.562;13.418;2024-01-15T03:47:47;8.73;;;4.70;;
22826;SDS011;11580;52.562;13.418;2024-01-15T03:50:15;6.70;;;4.80;;
22826;SDS011;11580;52.562;13.418;2024-01-15T03:52:43;6.17;;;5.40;;
22826;SDS011;11580;52.562;13.418;2024-01-15T03:55:10;5.93;;;4.43;;
22826;SDS011;11580;52.562;13.418;2024-01-15T03:57:37;5.80;;;4.80;;
22826;SDS011;11580;52.562;13.418;2024-01-15T04:00:04;6.27;;;4.93;;
22826;SDS011;11580;52.562;13.418;2024-01-15T04:02:33;5.17;;;4.67;;
22826;SDS011;11580;52.562;13.418;2024-01-15T04:05:01;7.47;;;5.23;;
22826;SDS011;11580;52.562;13.418;2024-01-15T04:07:29;6.87;;;5.23;;
22826;SDS011;11580;52.562;13.418;2024-01-15T04:09:57;6.87;;;5.03;;
22826;SDS011;11580;52.562;13.418;2024-01-15T04:12:24;7.67;;;5.47;;
22826;SDS011;11580;52.562;13.418;2024-01-15T04:14:51;7.80;;;5.20;;
22826;SDS011;11580;52.562;13.418;2024-01-15T04:17:19;5.20;;;4.67;;
22826;SDS011;11580;52.562;13.418;2024-01-15T04:19:46;5.37;;;4.87;;
22826;SDS011;11580;52.562;13.418;2024-01-15T04:22:14;4.93;;;4.03;;
22826;SDS011;11580;52.562;13.418;2024-01-15T04:24:42;5.03;;;4.53;;
22826;SDS011;11580;52.562;13.418;2024-01-15T04:27:10;4.87;;;4.40;;
22826;SDS011;11580;52.562;13.418;2024-01-15T04:29:37;6.80;;;4.87;;
22826;SDS011;11580;52.562;13.418;2024-01-15T04:32:05;5.90;;;4.83;;
22826;SDS011;11580;52.562;13.418;2024-01-15T04:34:32;5.40;;;4.53;;
22826;SDS011;11580;52.562;13.418;2024-01-15T04:36:59;5.13;;;4.50;;
22826;SDS011;11580;52.562;13.418;2024-01-15T04:39:26;6.30;;;4.93;;
22826;SDS011;11580;52.562;13.418;2024-01-15T04:41:55;5.40;;;4.90;;
22826;SDS011;11580;52.562;13.418;2024-01-15T04:44:22;7.53;;;4.73;;
22826;SDS011;11580;52.562;13.418;2024-01-15T04:46:49;3.77;;;3.40;;
22826;SDS011;11580;52.562;13.418;2024-01-15T04:49:16;3.70;;;3.30;;
22826;SDS011;11580;52.562;13.418;2024-01-15T04:51:43;6.00;;;4.03;;
22826;SDS011;11580;52.562;13.418;2024-01-15T04:54:11;3.83;;;3.30;;
22826;SDS011;11580;52.562;13.418;2024-01-15T04:56:42;3.57;;;3.27;;
22826;SDS011;11580;52.562;13.418;2024-01-15T04:59:11;4.80;;;3.73;;
22826;SDS011;11580;52.562;13.418;2024-01-15T05:01:39;6.13;;;3.57;;
22826;SDS011;11580;52.562;13.418;2024-01-15T05:04:07;4.80;;;3.60;;
22826;SDS011;11580;52.562;13.418;2024-01-15T05:06:34;6.33;;;3.83;;
22826;SDS011;11580;52.562;13.418;2024-01-15T05:09:01;6.00;;;3.77;;
22826;SDS011;11580;52.562;13.418;2024-01-15T05:11:29;3.77;;;3.43;;
22826;SDS011;11580;52.562;13.418;2024-01-15T05:13:56;6.83;;;3.37;;
22826;SDS011;11580;52.562;13.418;2024-01-15T05:16:25;5.17;;;3.40;;
22826;SDS011;11580;52.562;13.418;2024-01-15T05:18:52;9.43;;;3.70;;
22826;SDS011;11580;52.562;13.418;2024-01-15T05:21:19;4.67;;;3.47;;
22826;SDS011;11580;52.562;13.418;2024-01-15T05:23:46;3.80;;;3.00;;
22826;SDS011;11580;52.562;13.418;2024-01-15T05:26:13;4.87;;;3.93;;
22826;SDS011;11580;52.562;13.418;2024-01-15T05:28:40;4.93;;;2.73;;
22826;SDS011;11580;52.562;13.418;2024-01-15T05:31:08;4.70;;;3.43;;
22826;SDS011;11580;52.562;13.418;2024-01-15T05:33:37;5.30;;;2.93;;
22826;SDS011;11580;52.562;13.418;2024-01-15T05:36:05;4.43;;;2.90;;
22826;SDS011;11580;52.562;13.418;2024-01-15T05:38:33;7.03;;;3.70;;
22826;SDS011;11580;52.562;13.418;2024-01-15T05:41:00;3.40;;;2.60;;
22826;SDS011;11580;52.562;13.418;2024-01-15T05:43:27;3.90;;;2.77;;
22826;SDS011;11580;52.562;13.418;2024-01-15T05:45:54;3.67;;;2.33;;
22826;SDS011;11580;52.562;13.418;2024-01-15T05:48:21;7.17;;;2.43;;
22826;SDS011;11580;52.562;13.418;2024-01-15T05:50:50;3.83;;;2.23;;
22826;SDS011;11580;52.562;13.418;2024-01-15T05:53:17;2.10;;;1.90;;
22826;SDS011;11580;52.562;13.418;2024-01-15T05:55:44;3.60;;;2.43;;
22826;SDS011;11580;52.562;13.418;2024-01-15T05:58:11;3.60;;;2.63;;
22826;SDS011;11580;52.562;13.418;2024-01-15T06:00:38;2.67;;;2.40;;
22826;SDS011;11580;52.562;13.418;2024-01-15T06:03:06;3.40;;;2.33;;
22826;SDS011;11580;52.562;13.418;2024-01-15T06:05:33;2.40;;;2.13;;
22826;SDS011;11580;52.562;13.418;2024-01-15T06:08:02;2.50;;;2.30;;
22826;SDS011;11580;52.562;13.418;2024-01-15T06:10:29;4.40;;;2.13;;
22826;SDS011;11580;52.562;13.418;2024-01-15T06:12:56;5.70;;;2.97;;
22826;SDS011;11580;52.562;13.418;2024-01-15T06:15:24;4.13;;;2.00;;
22826;SDS011;11580;52.562;13.418;2024-01-15T06:17:51;2.47;;;2.20;;
22826;SDS011;11580;52.562;13.418;2024-01-15T06:20:18;2.83;;;2.00;;
22826;SDS011;11580;52.562;13.418;2024-01-15T06:22:46;3.47;;;2.23;;
22826;SDS011;11580;52.562;13.418;2024-01-15T06:25:14;2.80;;;2.40;;
22826;SDS011;11580;52.562;13.418;2024-01-15T06:27:41;6.13;;;2.33;;
22826;SDS011;11580;52.562;13.418;2024-01-15T06:30:09;4.70;;;1.93;;
22826;SDS011;11580;52.562;13.418;2024-01-15T06:32:38;3.10;;;1.87;;
22826;SDS011;11580;52.562;13.418;2024-01-15T06:35:05;3.00;;;2.03;;
22826;SDS011;11580;52.562;13.418;2024-01-15T06:37:35;3.83;;;2.40;;
22826;SDS011;11580;52.562;13.418;2024-01-15T06:40:03;5.17;;;2.10;;
22826;SDS011;11580;52.562;13.418;2024-01-15T06:42:33;7.43;;;2.03;;
22826;SDS011;11580;52.562;13.418;2024-01-15T06:45:00;6.90;;;2.50;;
22826;SDS011;11580;52.562;13.418;2024-01-15T06:47:27;3.77;;;2.53;;
22826;SDS011;11580;52.562;13.418;2024-01-15T06:49:54;4.13;;;1.97;;
22826;SDS011;11580;52.562;13.418;2024-01-15T06:52:21;3.17;;;1.93;;
22826;SDS011;11580;52.562;13.418;2024-01-15T06:54:48;3.17;;;1.87;;
22826;SDS011;11580;52.562;13.418;2024-01-15T06:57:15;2.50;;;1.90;;
22826;SDS011;11580;52.562;13.418;2024-01-15T06:59:46;2.10;;;1.90;;
22826;SDS011;11580;52.562;13.418;2024-01-15T07:02:13;2.90;;;1.77;;
22826;SDS011;11580;52.562;13.418;2024-01-15T07:04:41;3.60;;;2.27;;
22826;SDS011;11580;52.562;13.418;2024-01-15T07:07:08;3.03;;;2.17;;
22826;SDS011;11580;52.562;13.418;2024-01-15T07:09:35;3.10;;;1.80;;
22826;SDS011;11580;52.562;13.418;2024-01-15T07:12:02;6.10;;;2.40;;
22826;SDS011;11580;52.562;13.418;2024-01-15T07:14:30;5.67;;;2.73;;
22826;SDS011;11580;52.562;13.418;2024-01-15T07:16:58;5.70;;;1.70;;
22826;SDS011;11580;52.562;13.418;2024-01-15T07:19:26;4.10;;;2.00;;
22826;SDS011;11580;52.562;13.418;2024-01-15T07:21:53;3.63;;;1.57;;
22826;SDS011;11580;52.562;13.418;2024-01-15T07:24:20;4.47;;;2.00;;
22826;SDS011;11580;52.562;13.418;2024-01-15T07:26:47;2.87;;;2.20;;
22826;SDS011;11580;52.562;13.418;2024-01-15T07:29:14;6.40;;;1.93;;
22826;SDS011;11580;52.562;13.418;2024-01-15T07:31:47;4.20;;;1.90;;
22826;SDS011;11580;52.562;13.418;2024-01-15T07:34:17;3.97;;;2.33;;
22826;SDS011;11580;52.562;13.418;2024-01-15T07:36:44;3.43;;;1.90;;
22826;SDS011;11580;52.562;13.418;2024-01-15T07:39:11;2.70;;;2.13;;
22826;SDS011;11580;52.562;13.418;2024-01-15T07:41:40;4.90;;;1.80;;
22826;SDS011;11580;52.562;13.418;2024-01-15T07:44:07;5.47;;;2.03;;
22826;SDS011;11580;52.562;13.418;2024-01-15T07:46:34;3.27;;;2.20;;
22826;SDS011;11580;52.562;13.418;2024-01-15T07:49:01;8.63;;;2.20;;
22826;SDS011;11580;52.562;13.418;2024-01-15T07:51:31;3.20;;;2.00;;
22826;SDS011;11580;52.562;13.418;2024-01-15T07:53:59;3.80;;;1.93;;
22826;SDS011;11580;52.562;13.418;2024-01-15T07:56:26;4.80;;;2.13;;
22826;SDS011;11580;52.562;13.418;2024-01-15T07:58:53;3.10;;;1.87;;
22826;SDS011;11580;52.562;13.418;2024-01-15T08:01:20;3.33;;;1.67;;
22826;SDS011;11580;52.562;13.418;2024-01-15T08:03:47;3.90;;;2.40;;
22826;SDS011;11580;52.562;13.418;2024-01-15T08:06:15;4.07;;;2.10;;
22826;SDS011;11580;52.562;13.418;2024-01-15T08:08:44;7.17;;;2.10;;
22826;SDS011;11580;52.562;13.418;2024-01-15T08:11:11;6.50;;;2.93;;
22826;SDS011;11580;52.562;13.418;2024-01-15T08:13:38;6.83;;;2.60;;
22826;SDS011;11580;52.562;13.418;2024-01-15T08:16:05;2.27;;;2.00;;
22826;SDS011;11580;52.562;13.418;2024-01-15T08:18:32;3.83;;;2.30;;
22826;SDS011;11580;52.562;13.418;2024-01-15T08:20:59;4.33;;;2.80;;
22826;SDS011;11580;52.562;13.418;2024-01-15T08:23:28;3.63;;;2.30;;
22826;SDS011;11580;52.562;13.418;2024-01-15T08:25:57;3.40;;;1.90;;
22826;SDS011;11580;52.562;13.418;2024-01-15T08:28:24;2.00;;;1.77;;
22826;SDS011;11580;52.562;13.418;2024-01-15T08:30:52;5.07;;;2.30;;
22826;SDS011;11580;52.562;13.418;2024-01-15T08:33:19;2.00;;;1.60;;
22826;SDS011;11580;52.562;13.418;2024-01-15T08:35:46;3.00;;;2.03;;
22826;SDS011;11580;52.562;13.418;2024-01-15T08:38:13;6.43;;;2.03;;
22826;SDS011;11580;52.562;13.418;2024-01-15T08:40:40;3.30;;;1.80;;
22826;SDS011;11580;52.562;13.418;2024-01-15T08:43:09;4.30;;;1.90;;
22826;SDS011;11580;52.562;13.418;2024-01-15T08:45:36;2.47;;;1.90;;
22826;SDS011;11580;52.562;13.418;2024-01-15T08:48:03;2.93;;;2.13;;
22826;SDS011;11580;52.562;13.418;2024-01-15T08:50:30;3.03;;;1.70;;
22826;SDS011;11580;52.562;13.418;2024-01-15T08:52:59;4.13;;;2.10;;
22826;SDS011;11580;52.562;13.418;2024-01-15T08:55:26;2.73;;;2.03;;
22826;SDS011;11580;52.562;13.418;2024-01-15T08:57:53;7.13;;;2.57;;
22826;SDS011;11580;52.562;13.418;2024-01-15T09:00:22;4.60;;;2.33;;
22826;SDS011;11580;52.562;13.418;2024-01-15T09:02:49;3.00;;;2.20;;
22826;SDS011;11580;52.562;13.418;2024-01-15T09:05:16;3.73;;;2.37;;
22826;SDS011;11580;52.562;13.418;2024-01-15T09:07:43;5.80;;;3.10;;
22826;SDS011;11580;52.562;13.418;2024-01-15T09:10:11;6.50;;;2.00;;
22826;SDS011;11580;52.562;13.418;2024-01-15T09:12:38;4.27;;;2.20;;
22826;SDS011;11580;52.562;13.418;2024-01-15T09:15:05;2.90;;;2.20;;
22826;SDS011;11580;52.562;13.418;2024-01-15T09:17:35;5.40;;;3.30;;
22826;SDS011;11580;52.562;13.418;2024-01-15T09:20:02;3.73;;;2.10;;
22826;SDS011;11580;52.562;13.418;2024-01-15T09:22:30;6.87;;;2.70;;
22826;SDS011;11580;52.562;13.418;2024-01-15T09:24:58;2.63;;;2.30;;
22826;SDS011;11580;52.562;13.418;2024-01-15T09:27:25;3.27;;;1.77;;
22826;SDS011;11580;52.562;13.418;2024-01-15T09:29:52;4.33;;;2.67;;
22826;SDS011;11580;52.562;13.418;2024-01-15T09:32:20;2.50;;;1.90;;
22826;SDS011;11580;52.562;13.418;2024-01-15T09:34:48;4.93;;;2.43;;
22826;SDS011;11580;52.562;13.418;2024-01-15T09:37:15;4.87;;;2.90;;
22826;SDS011;11580;52.562;13.418;2024-01-15T09:39:43;5.73;;;2.27;;
22826;SDS011;11580;52.562;13.418;2024-01-15T09:42:10;4.80;;;2.10;;
22826;SDS011;11580;52.562;13.418;2024-01-15T09:44:38;2.93;;;1.90;;
22826;SDS011;11580;52.562;13.418;2024-01-15T09:47:06;6.87;;;2.63;;
22826;SDS011;11580;52.562;13.418;2024-01-15T09:49:34;2.53;;;1.80;;
22826;SDS011;11580;52.562;13.418;2024-01-15T09:52:04;5.17;;;1.90;;
22826;SDS011;11580;52.562;13.418;2024-01-15T09:54:33;2.70;;;2.00;;
22826;SDS011;11580;52.562;13.418;2024-01-15T09:57:00;2.93;;;1.60;;
22826;SDS011;11580;52.562;13.418;2024-01-15T09:59:27;4.03;;;2.10;;
22826;SDS011;11580;52.562;13.418;2024-01-15T10:01:56;2.37;;;1.47;;
22826;SDS011;11580;52.562;13.418;2024-01-15T10:04:25;2.90;;;1.90;;
22826;SDS011;11580;52.562;13.418;2024-01-15T10:06:53;3.77;;;1.90;;
22826;SDS011;11580;52.562;13.418;2024-01-15T10:09:24;2.43;;;1.67;;
22826;SDS011;11580;52.562;13.418;2024-01-15T10:11:51;4.47;;;1.70;;
22826;SDS011;11580;52.562;13.418;2024-01-15T10:14:18;3.70;;;1.70;;
22826;SDS011;11580;52.562;13.418;2024-01-15T10:16:46;2.70;;;1.40;;
22826;SDS011;11580;52.562;13.418;2024-01-15T10:19:13;3.60;;;1.83;;
22826;SDS011;11580;52.562;13.418;2024-01-15T10:21:41;3.00;;;2.20;;
22826;SDS011;11580;52.562;13.418;2024-01-15T10:24:08;2.30;;;1.40;;
22826;SDS011;11580;52.562;13.418;2024-01-15T10:26:36;2.87;;;2.27;;
22826;SDS011;11580;52.562;13.418;2024-01-15T10:29:03;2.27;;;1.50;;
22826;SDS011;11580;52.562;13.418;2024-01-15T10:31:30;2.27;;;1.70;;
22826;SDS011;11580;52.562;13.418;2024-01-15T10:34:05;3.40;;;1.70;;
22826;SDS011;11580;52.562;13.418;2024-01-15T10:36:39;2.57;;;1.80;;
22826;SDS011;11580;52.562;13.418;2024-01-15T10:39:06;1.63;;;1.47;;
22826;SDS011;11580;52.562;13.418;2024-01-15T10:41:34;2.50;;;1.73;;
22826;SDS011;11580;52.562;13.418;2024-01-15T10:44:03;1.63;;;1.53;;
22826;SDS011;11580;52.562;13.418;2024-01-15T10:46:30;3.43;;;2.70;;
22826;SDS011;11580;52.562;13.418;2024-01-15T10:49:00;2.30;;;1.87;;
22826;SDS011;11580;52.562;13.418;2024-01-15T10:51:27;2.80;;;1.70;;
22826;SDS011;11580;52.562;13.418;2024-01-15T10:53:55;3.27;;;1.80;;
22826;SDS011;11580;52.562;13.418;2024-01-15T10:56:24;1.80;;;1.40;;
22826;SDS011;11580;52.562;13.418;2024-01-15T10:58:54;1.70;;;1.50;;
22826;SDS011;11580;52.562;13.418;2024-01-15T11:01:23;2.00;;;1.33;;
22826;SDS011;11580;52.562;13.418;2024-01-15T11:03:51;1.97;;;1.50;;
22826;SDS011;11580;52.562;13.418;2024-01-15T11:06:23;1.83;;;1.60;;
22826;SDS011;11580;52.562;13.418;2024-01-15T11:08:51;2.13;;;1.67;;
22826;SDS011;11580;52.562;13.418;2024-01-15T11:11:20;2.57;;;1.50;;
22826;SDS011;11580;52.562;13.418;2024-01-15T11:13:48;1.93;;;1.23;;
22826;SDS011;11580;52.562;13.418;2024-01-15T11:16:17;1.47;;;1.33;;
22826;SDS011;11580;52.562;13.418;2024-01-15T11:21:33;1.97;;;1.07;;
22826;SDS011;11580;52.562;13.418;2024-01-15T11:24:09;2.27;;;1.27;;
22826;SDS011;11580;52.562;13.418;2024-01-15T11:26:37;1.83;;;1.20;;
22826;SDS011;11580;52.562;13.418;2024-01-15T11:34:53;1.50;;;1.40;;
22826;SDS011;11580;52.562;13.418;2024-01-15T11:37:27;1.33;;;1.23;;
22826;SDS011;11580;52.562;13.418;2024-01-15T11:40:17;3.50;;;1.00;;
22826;SDS011;11580;52.562;13.418;2024-01-15T11:42:45;1.30;;;1.20;;
22826;SDS011;11580;52.562;13.418;2024-01-15T11:45:13;1.50;;;1.40;;
22826;SDS011;11580;52.562;13.418;2024-01-15T11:48:03;1.27;;;1.17;;
22826;SDS011;11580;52.562;13.418;2024-01-15T11:50:40;2.33;;;1.43;;
22826;SDS011;11580;52.562;13.418;2024-01-15T11:53:21;2.17;;;1.30;;
22826;SDS011;11580;52.562;13.418;2024-01-15T11:56:02;1.43;;;1.33;;
22826;SDS011;11580;52.562;13.418;2024-01-15T11:58:33;1.27;;;1.17;;
22826;SDS011;11580;52.562;13.418;2024-01-15T12:01:02;1.43;;;1.20;;
22826;SDS011;11580;52.562;13.418;2024-01-15T12:03:31;2.00;;;1.50;;
22826;SDS011;11580;52.562;13.418;2024-01-15T12:06:01;2.47;;;1.60;;
22826;SDS011;11580;52.562;13.418;2024-01-15T12:08:28;2.10;;;1.30;;
22826;SDS011;11580;52.562;13.418;2024-01-15T12:10:55;2.43;;;1.50;;
22826;SDS011;11580;52.562;13.418;2024-01-15T12:13:22;2.90;;;1.53;;
22826;SDS011;11580;52.562;13.418;2024-01-15T12:15:50;1.40;;;1.30;;
22826;SDS011;11580;52.562;13.418;2024-01-15T12:18:18;1.80;;;1.40;;
22826;SDS011;11580;52.562;13.418;2024-01-15T12:20:45;1.90;;;1.80;;
22826;SDS011;11580;52.562;13.418;2024-01-15T12:23:14;3.57;;;1.83;;
22826;SDS011;11580;52.562;13.418;2024-01-15T12:25:42;2.87;;;1.80;;
22826;SDS011;11580;52.562;13.418;2024-01-15T12:28:10;1.60;;;1.50;;
22826;SDS011;11580;52.562;13.418;2024-01-15T12:30:37;1.50;;;1.40;;
22826;SDS011;11580;52.562;13.418;2024-01-15T12:33:05;1.50;;;1.30;;
22826;SDS011;11580;52.562;13.418;2024-01-15T12:35:34;1.63;;;1.53;;
22826;SDS011;11580;52.562;13.418;2024-01-15T12:38:02;1.30;;;1.20;;
22826;SDS011;11580;52.562;13.418;2024-01-15T12:40:31;1.37;;;1.23;;
22826;SDS011;11580;52.562;13.418;2024-01-15T12:43:00;2.17;;;1.20;;
22826;SDS011;11580;52.562;13.418;2024-01-15T12:45:27;1.27;;;1.17;;
22826;SDS011;11580;52.562;13.418;2024-01-15T12:47:56;2.37;;;1.73;;
22826;SDS011;11580;52.562;13.418;2024-01-15T12:50:24;1.00;;;1.00;;
22826;SDS011;11580;52.562;13.418;2024-01-15T12:52:51;1.37;;;1.27;;
22826;SDS011;11580;52.562;13.418;2024-01-15T12:55:19;1.33;;;1.23;;
22826;SDS011;11580;52.562;13.418;2024-01-15T12:57:47;1.17;;;1.07;;
22826;SDS011;11580;52.562;13.418;2024-01-15T13:00:17;1.33;;;0.80;;
22826;SDS011;11580;52.562;13.418;2024-01-15T13:02:45;1.73;;;0.93;;
22826;SDS011;11580;52.562;13.418;2024-01-15T13:05:12;1.37;;;1.00;;
22826;SDS011;11580;52.562;13.418;2024-01-15T13:07:39;0.90;;;0.90;;
22826;SDS011;11580;52.562;13.418;2024-01-15T13:10:05;2.80;;;1.00;;
22826;SDS011;11580;52.562;13.418;2024-01-15T13:12:34;1.00;;;1.00;;
22826;SDS011;11580;52.562;13.418;2024-01-15T13:15:03;1.20;;;1.07;;
22826;SDS011;11580;52.562;13.418;2024-01-15T13:17:31;1.43;;;1.23;;
22826;SDS011;11580;52.562;13.418;2024-01-15T13:19:58;1.10;;;1.10;;
22826;SDS011;11580;52.562;13.418;2024-01-15T13:22:25;1.33;;;1.23;;
22826;SDS011;11580;52.562;13.418;2024-01-15T13:24:57;1.13;;;1.07;;
22826;SDS011;11580;52.562;13.418;2024-01-15T13:27:24;1.33;;;1.23;;
22826;SDS011;11580;52.562;13.418;2024-01-15T13:29:51;1.43;;;1.33;;
22826;SDS011;11580;52.562;13.418;2024-01-15T13:32:22;1.40;;;1.30;;
22826;SDS011;11580;52.562;13.418;2024-01-15T13:34:52;1.20;;;1.10;;
22826;SDS011;11580;52.562;13.418;2024-01-15T13:37:20;1.00;;;1.00;;
22826;SDS011;11580;52.562;13.418;2024-01-15T13:39:49;1.77;;;1.60;;
22826;SDS011;11580;52.562;13.418;2024-01-15T13:42:17;1.77;;;1.47;;
22826;SDS011;11580;52.562;13.418;2024-01-15T13:44:47;1.40;;;1.30;;
22826;SDS011;11580;52.562;13.418;2024-01-15T13:47:14;2.30;;;1.30;;
22826;SDS011;11580;52.562;13.418;2024-01-15T13:49:42;1.33;;;1.27;;
22826;SDS011;11580;52.562;13.418;2024-01-15T13:52:09;1.57;;;1.47;;
22826;SDS011;11580;52.562;13.418;2024-01-15T13:54:37;2.27;;;1.20;;
22826;SDS011;11580;52.562;13.418;2024-01-15T13:57:04;1.67;;;1.10;;
22826;SDS011;11580;52.562;13.418;2024-01-15T13:59:32;2.77;;;1.30;;
22826;SDS011;11580;52.562;13.418;2024-01-15T14:01:59;1.53;;;1.33;;
22826;SDS011;11580;52.562;13.418;2024-01-15T14:04:26;4.63;;;1.43;;
22826;SDS011;11580;52.562;13.418;2024-01-15T14:06:55;1.90;;;1.30;;
22826;SDS011;11580;52.562;13.418;2024-01-15T14:09:22;1.50;;;1.40;;
22826;SDS011;11580;52.562;13.418;2024-01-15T14:11:50;2.80;;;1.97;;
22826;SDS011;11580;52.562;13.418;2024-01-15T14:14:18;1.63;;;1.40;;
22826;SDS011;11580;52.562;13.418;2024-01-15T14:16:45;1.87;;;1.70;;
22826;SDS011;11580;52.562;13.418;2024-01-15T14:19:12;1.50;;;1.40;;
22826;SDS011;11580;52.562;13.418;2024-01-15T14:21:40;2.10;;;1.50;;
22826;SDS011;11580;52.562;13.418;2024-01-15T14:24:08;1.40;;;1.30;;
22826;SDS011;11580;52.562;13.418;2024-01-15T14:26:36;2.40;;;1.30;;
22826;SDS011;11580;52.562;13.418;2024-01-15T14:29:03;2.40;;;1.63;;
22826;SDS011;11580;52.562;13.418;2024-01-15T14:31:31;1.27;;;1.10;;
22826;SDS011;11580;52.562;13.418;2024-01-15T14:33:59;1.50;;;1.40;;
22826;SDS011;11580;52.562;13.418;2024-01-15T14:36:28;2.20;;;1.47;;
22826;SDS011;11580;52.562;13.418;2024-01-15T14:38:55;2.80;;;1.63;;
22826;SDS011;11580;52.562;13.418;2024-01-15T14:41:23;1.87;;;1.40;;
22826;SDS011;11580;52.562;13.418;2024-01-15T14:43:50;1.80;;;1.30;;
22826;SDS011;11580;52.562;13.418;2024-01-15T14:46:18;1.80;;;1.30;;